Terminal Aerodrome Forecast
Issued by NWS Quad Cities IA IL

Home | Current Version | Previous Version | Text Only | Print | Product List | Glossary On
Versions: 1 2 3 4 5 6 7 8 9 10 11 12 13 14 15 16 17
000
FTUS43 KDVN 230500
TAFDBQ
TAF
KDBQ 230520Z 2306/2406 04006KT P6SM BKN250
     FM231200 11013KT P6SM OVC100
     FM232000 16015KT P6SM -SHRA OVC070
     FM240000 12010KT P6SM VCSH BKN100=

USA.gov is the U.S. government's official web portal to all federal, state and local government web resources and services.